Time;durP1;ratioP1;P1;durP2;ratioP2;P2;SDS_P1;SDS_P2;PMS_P1;PMS_P2;Temp;Humidity;BMP_temperature;BMP_pressure;BME280_temperature;BME280_humidity;BME280_pressure;Samples;Min_cycle;Max_cycle;Signal;HPM_P1;HPM_P2
2022/10/13 00:01:28;;;;;;;26.33;11.52;;;10.10;99.90;;;;;;5202186;28;20471;-71
2022/10/13 00:04:00;;;;;;;19.85;10.80;;;10.30;99.90;;;;;;5222908;28;20039;-71
2022/10/13 00:06:33;;;;;;;18.65;11.25;;;10.30;99.90;;;;;;5176295;28;20049;-71
2022/10/13 00:09:04;;;;;;;17.85;9.88;;;10.40;99.90;;;;;;5221172;28;20025;-71
2022/10/13 00:11:36;;;;;;;17.85;10.02;;;10.40;99.90;;;;;;5202267;28;20043;-71
2022/10/13 00:14:07;;;;;;;17.15;9.32;;;10.40;99.90;;;;;;5202958;28;20027;-70
2022/10/13 00:16:41;;;;;;;17.65;8.90;;;10.50;99.90;;;;;;5214514;28;20032;-71
2022/10/13 00:19:14;;;;;;;16.05;9.52;;;10.50;99.90;;;;;;5202392;28;20029;-70
2022/10/13 00:21:51;;;;;;;16.33;9.27;;;10.40;99.90;;;;;;5220175;28;20028;-71
2022/10/13 00:24:24;;;;;;;14.65;8.60;;;10.40;99.90;;;;;;5220245;28;20271;-73
2022/10/13 00:26:55;;;;;;;17.90;9.70;;;10.40;99.90;;;;;;5219739;28;20033;-71
2022/10/13 00:29:26;;;;;;;17.08;9.18;;;10.30;99.90;;;;;;5203610;28;20225;-72
2022/10/13 00:32:00;;;;;;;10.93;7.97;;;10.30;99.90;;;;;;5186107;28;20049;-71
2022/10/13 00:34:34;;;;;;;20.13;9.88;;;10.20;99.90;;;;;;5238534;28;20025;-72
2022/10/13 00:37:05;;;;;;;16.20;9.63;;;10.10;99.90;;;;;;5223372;28;20028;-73
2022/10/13 00:39:40;;;;;;;14.50;9.23;;;10.00;99.90;;;;;;5239542;28;20031;-72
2022/10/13 00:42:12;;;;;;;;;;;9.90;99.90;;;;;;5214598;28;20140;-73
2022/10/13 00:45:18;;;;;;;14.48;8.68;;;9.90;99.90;;;;;;5214856;28;19915;-71
2022/10/13 00:47:57;;;;;;;12.40;7.93;;;9.90;99.90;;;;;;5219503;28;20036;-72
2022/10/13 00:50:36;;;;;;;13.98;8.98;;;9.80;99.90;;;;;;5196693;28;20039;-72
2022/10/13 00:53:09;;;;;;;14.75;8.80;;;9.80;99.90;;;;;;5213650;28;20044;-72
2022/10/13 00:55:44;;;;;;;14.07;8.90;;;9.80;99.90;;;;;;5220485;28;20033;-72
2022/10/13 00:58:18;;;;;;;10.88;7.22;;;9.80;99.90;;;;;;5220114;28;20059;-71
2022/10/13 01:00:51;;;;;;;16.50;7.82;;;9.80;99.90;;;;;;5220424;28;20486;-71
2022/10/13 01:03:23;;;;;;;11.02;7.85;;;9.70;99.90;;;;;;5218855;28;20033;-71
2022/10/13 01:06:00;;;;;;;17.60;8.25;;;9.70;99.90;;;;;;5214414;28;20053;-72
2022/10/13 01:08:36;;;;;;;11.32;8.15;;;9.70;99.90;;;;;;5203384;28;20032;-72
2022/10/13 01:11:27;;;;;;;17.13;8.52;;;9.70;99.90;;;;;;5201952;28;20041;-71
2022/10/13 01:14:24;;;;;;;11.98;8.20;;;9.70;99.90;;;;;;5213786;28;20033;-72
2022/10/13 01:17:22;;;;;;;15.90;8.57;;;9.70;99.90;;;;;;5215016;28;20033;-71
2022/10/13 01:19:59;;;;;;;14.57;8.30;;;9.60;99.90;;;;;;5219675;28;20512;-72
2022/10/13 01:22:55;;;;;;;12.38;8.05;;;9.60;99.90;;;;;;5219566;28;20029;-71
2022/10/13 01:25:54;;;;;;;13.30;7.78;;;9.60;99.90;;;;;;5202514;28;20060;-73
2022/10/13 01:28:51;;;;;;;13.70;9.05;;;9.50;99.90;;;;;;5185708;28;20051;-71
2022/10/13 01:31:43;;;;;;;19.35;9.63;;;9.50;99.90;;;;;;5187860;28;20040;-71
2022/10/13 01:34:37;;;;;;;12.10;8.35;;;9.50;99.90;;;;;;5237933;28;20037;-71
2022/10/13 01:37:15;;;;;;;13.68;8.57;;;9.50;99.90;;;;;;5239855;28;20033;-71
2022/10/13 01:40:03;;;;;;;15.30;8.02;;;9.50;99.90;;;;;;5221861;28;20024;-71
2022/10/13 01:42:48;;;;;;;15.23;9.43;;;9.50;99.90;;;;;;5221905;28;20029;-70
2022/10/13 01:45:24;;;;;;;15.10;8.35;;;9.50;99.90;;;;;;5204226;28;20041;-70
2022/10/13 01:48:05;;;;;;;15.52;9.57;;;9.40;99.90;;;;;;5204402;28;20029;-72
2022/10/13 01:50:37;;;;;;;27.30;9.60;;;9.50;99.90;;;;;;5186074;28;20036;-72
2022/10/13 01:53:10;;;;;;;16.95;9.65;;;9.50;99.90;;;;;;5205189;28;20025;-72
2022/10/13 01:56:01;;;;;;;14.48;9.63;;;9.50;99.90;;;;;;5195534;28;20039;-71
2022/10/13 01:58:35;;;;;;;19.98;10.20;;;9.50;99.90;;;;;;5186425;28;20039;-72
2022/10/13 02:01:12;;;;;;;17.73;9.57;;;9.60;99.90;;;;;;5204629;28;20557;-70
2022/10/13 02:04:19;;;;;;;18.45;9.68;;;9.60;99.90;;;;;;5203616;28;20067;-72
2022/10/13 02:06:53;;;;;;;17.92;10.07;;;9.70;99.90;;;;;;5176993;28;20033;-72
2022/10/13 02:09:32;;;;;;;19.38;9.90;;;9.80;99.90;;;;;;5202307;28;20033;-72
2022/10/13 02:12:14;;;;;;;19.08;10.98;;;9.80;99.90;;;;;;5193539;28;20029;-73
2022/10/13 02:14:47;;;;;;;20.25;10.05;;;9.90;99.90;;;;;;5215165;28;20025;-72
2022/10/13 02:17:19;;;;;;;16.08;10.60;;;10.00;99.90;;;;;;5222529;28;20021;-72
2022/10/13 02:19:53;;;;;;;19.30;10.65;;;10.00;99.90;;;;;;5219537;28;20498;-70
2022/10/13 02:22:32;;;;;;;18.50;11.15;;;10.00;99.90;;;;;;5199896;28;20028;-71
2022/10/13 02:25:04;;;;;;;17.00;10.50;;;10.10;99.90;;;;;;5222536;28;20046;-72
2022/10/13 02:27:35;;;;;;;18.45;11.15;;;10.20;99.90;;;;;;5204334;28;20375;-72
2022/10/13 02:30:07;;;;;;;16.58;11.15;;;10.20;99.90;;;;;;5205458;28;20025;-72
2022/10/13 02:32:38;;;;;;;19.98;11.50;;;10.30;99.90;;;;;;5222431;28;20039;-72
2022/10/13 02:35:12;;;;;;;17.48;11.38;;;10.40;99.90;;;;;;5222849;28;20044;-72
2022/10/13 02:37:43;;;;;;;16.23;10.25;;;10.40;99.90;;;;;;5221482;28;20031;-72
2022/10/13 02:40:17;;;;;;;20.45;10.45;;;10.50;99.90;;;;;;5213173;28;20025;-72
2022/10/13 02:42:48;;;;;;;20.70;13.07;;;10.50;99.90;;;;;;5212167;28;20043;-72
2022/10/13 02:45:19;;;;;;;20.85;11.80;;;10.50;99.90;;;;;;5221971;28;20440;-72
2022/10/13 02:47:50;;;;;;;21.70;12.38;;;10.60;99.90;;;;;;5204386;28;20055;-71
2022/10/13 02:50:24;;;;;;;19.42;12.52;;;10.60;99.90;;;;;;5209760;28;20036;-72
2022/10/13 02:52:58;;;;;;;20.48;12.00;;;10.60;99.90;;;;;;5216289;28;20625;-72
2022/10/13 02:55:29;;;;;;;24.83;12.57;;;10.60;99.90;;;;;;5203640;28;20070;-72
2022/10/13 02:58:03;;;;;;;19.48;11.68;;;10.60;99.90;;;;;;5221806;28;20035;-71
2022/10/13 03:00:34;;;;;;;19.65;12.35;;;10.60;99.90;;;;;;5204655;28;20024;-72
2022/10/13 03:03:10;;;;;;;21.23;12.48;;;10.70;99.90;;;;;;5220176;28;20043;-72
2022/10/13 03:05:43;;;;;;;19.30;11.85;;;10.70;99.90;;;;;;5176078;28;20052;-72
2022/10/13 03:08:20;;;;;;;23.90;13.00;;;10.80;99.90;;;;;;5219239;28;20035;-72
2022/10/13 03:10:51;;;;;;;19.35;13.05;;;10.80;99.90;;;;;;5209433;28;20036;-72
2022/10/13 03:13:31;;;;;;;19.83;12.45;;;10.90;99.90;;;;;;5204403;28;20025;-71
2022/10/13 03:16:02;;;;;;;21.05;11.70;;;10.90;99.90;;;;;;5203662;28;20033;-72
2022/10/13 03:18:39;;;;;;;17.35;11.82;;;11.00;99.90;;;;;;5204893;28;20025;-72
2022/10/13 03:21:10;;;;;;;18.00;12.27;;;11.10;99.90;;;;;;5204546;28;20342;-72
2022/10/13 03:23:42;;;;;;;17.40;11.52;;;11.10;99.90;;;;;;5220976;28;20021;-72
2022/10/13 03:26:14;;;;;;;17.33;11.30;;;11.10;99.90;;;;;;5204079;28;20447;-72
2022/10/13 03:28:50;;;;;;;19.40;11.90;;;11.10;99.90;;;;;;5221785;28;20024;-72
2022/10/13 03:31:22;;;;;;;14.52;10.18;;;11.10;99.90;;;;;;5220723;28;20027;-72
2022/10/13 03:34:00;;;;;;;18.85;11.30;;;11.20;99.90;;;;;;5220446;28;20029;-71
2022/10/13 03:36:34;;;;;;;17.30;10.57;;;11.30;99.90;;;;;;5220444;28;20029;-71
2022/10/13 03:39:07;;;;;;;15.40;10.45;;;11.40;99.90;;;;;;5217037;28;20044;-72
2022/10/13 03:41:38;;;;;;;17.92;11.70;;;11.40;99.90;;;;;;5220072;28;20483;-72
2022/10/13 03:44:12;;;;;;;17.48;11.07;;;11.40;99.90;;;;;;5203195;28;20037;-72
2022/10/13 03:46:43;;;;;;;;;;;11.50;99.90;;;;;;5221222;28;20028;-72
2022/10/13 03:49:16;;;;;;;15.65;9.98;;;11.60;99.90;;;;;;5190910;28;19916;-72
2022/10/13 03:51:47;;;;;;;16.33;10.38;;;11.60;99.90;;;;;;5241349;28;20024;-72
2022/10/13 03:54:23;;;;;;;17.63;11.80;;;11.60;99.90;;;;;;5213237;28;20036;-72
2022/10/13 03:56:57;;;;;;;16.55;10.88;;;11.60;99.90;;;;;;5220668;28;20029;-72
2022/10/13 03:59:31;;;;;;;20.40;12.00;;;11.60;99.90;;;;;;5220916;28;20368;-72
2022/10/13 04:02:03;;;;;;;16.25;11.52;;;11.70;99.90;;;;;;5220112;28;20341;-72
2022/10/13 04:04:38;;;;;;;18.77;11.63;;;11.70;99.90;;;;;;5210697;28;20044;-72
2022/10/13 04:07:10;;;;;;;20.30;11.73;;;11.60;99.90;;;;;;5202222;28;20044;-72
2022/10/13 04:09:41;;;;;;;17.85;12.07;;;11.60;99.90;;;;;;5219481;28;20551;-72
2022/10/13 04:12:12;;;;;;;25.02;13.45;;;11.60;99.90;;;;;;5197437;28;20482;-72
2022/10/13 04:14:43;;;;;;;25.77;13.90;;;11.60;99.90;;;;;;5165649;28;20039;-72
2022/10/13 04:17:14;;;;;;;21.65;14.05;;;11.50;99.90;;;;;;5189371;28;20314;-72
2022/10/13 04:19:46;;;;;;;21.25;12.32;;;11.40;99.90;;;;;;5220144;28;20039;-71
2022/10/13 04:22:17;;;;;;;22.33;13.55;;;11.40;99.90;;;;;;5202820;28;20041;-72
2022/10/13 04:24:51;;;;;;;20.58;13.18;;;11.40;99.90;;;;;;5201258;28;20037;-71
2022/10/13 04:27:22;;;;;;;25.58;14.00;;;11.40;99.90;;;;;;5202313;28;20447;-71
2022/10/13 04:29:54;;;;;;;24.20;12.30;;;11.30;99.90;;;;;;5202897;28;20036;-71
2022/10/13 04:32:25;;;;;;;18.90;12.23;;;11.30;99.90;;;;;;5219705;28;20067;-72
2022/10/13 04:35:07;;;;;;;19.10;12.55;;;11.40;99.90;;;;;;5217475;28;20485;-72
2022/10/13 04:37:38;;;;;;;20.05;12.82;;;11.50;99.90;;;;;;5200326;28;20017;-72
2022/10/13 04:40:09;;;;;;;18.75;11.73;;;11.50;99.90;;;;;;5219640;28;20033;-72
2022/10/13 04:42:43;;;;;;;19.92;11.70;;;11.50;99.90;;;;;;5219481;28;20043;-72
2022/10/13 04:45:18;;;;;;;24.50;13.57;;;11.50;99.90;;;;;;5202686;28;20029;-72
2022/10/13 04:47:49;;;;;;;21.00;12.02;;;11.50;99.90;;;;;;5199654;28;20045;-71
2022/10/13 04:50:23;;;;;;;21.67;12.70;;;11.50;99.90;;;;;;5210803;28;20372;-72
2022/10/13 04:52:54;;;;;;;21.45;12.18;;;11.50;99.90;;;;;;5222749;28;20028;-71
2022/10/13 04:55:25;;;;;;;20.48;12.63;;;11.50;99.90;;;;;;5216756;28;20104;-71
2022/10/13 04:57:59;;;;;;;18.70;11.85;;;11.50;99.90;;;;;;5219264;28;20549;-71
2022/10/13 05:00:32;;;;;;;19.30;12.13;;;11.50;99.90;;;;;;5203138;28;20024;-73
2022/10/13 05:03:07;;;;;;;20.90;12.43;;;11.50;99.90;;;;;;5214210;28;20037;-73
2022/10/13 05:05:38;;;;;;;18.63;11.43;;;11.40;99.90;;;;;;5201724;28;20049;-72
2022/10/13 05:08:10;;;;;;;21.83;11.95;;;11.40;99.90;;;;;;5228467;28;20031;-72
2022/10/13 05:10:41;;;;;;;17.45;11.45;;;11.50;99.90;;;;;;5221080;28;20502;-72
2022/10/13 05:13:12;;;;;;;18.13;11.07;;;11.50;99.90;;;;;;5202361;28;20055;-72
2022/10/13 05:15:43;;;;;;;17.67;11.57;;;11.60;99.90;;;;;;5206928;28;20017;-71
2022/10/13 05:18:18;;;;;;;20.38;12.27;;;11.70;99.90;;;;;;5208303;28;20337;-72
2022/10/13 05:20:49;;;;;;;20.75;12.38;;;11.80;99.90;;;;;;5211002;28;20028;-72
2022/10/13 05:23:20;;;;;;;20.38;11.68;;;11.70;99.90;;;;;;5225878;28;20042;-71
2022/10/13 05:25:54;;;;;;;18.80;11.10;;;11.70;99.90;;;;;;5242374;28;20039;-71
2022/10/13 05:28:28;;;;;;;24.35;11.98;;;11.80;99.90;;;;;;5185948;28;20036;-72
2022/10/13 05:31:12;;;;;;;19.88;12.02;;;11.80;99.90;;;;;;5203344;28;20028;-71
2022/10/13 05:33:47;;;;;;;22.63;14.60;;;11.80;99.90;;;;;;5218120;28;20634;-73
2022/10/13 05:36:33;;;;;;;21.25;12.27;;;11.80;99.90;;;;;;5213661;28;20020;-72
2022/10/13 05:39:08;;;;;;;19.30;12.20;;;11.80;99.90;;;;;;5225520;28;20028;-73
2022/10/13 05:41:40;;;;;;;21.60;13.30;;;11.80;99.90;;;;;;5225345;28;20051;-70
2022/10/13 05:44:15;;;;;;;26.42;15.52;;;11.80;99.90;;;;;;5200935;28;20033;-72
2022/10/13 05:46:49;;;;;;;26.88;13.77;;;11.90;99.90;;;;;;5195385;28;20040;-73
2022/10/13 05:49:20;;;;;;;24.20;15.47;;;12.00;99.90;;;;;;5219770;28;20028;-75
2022/10/13 05:51:56;;;;;;;20.27;13.52;;;12.10;99.90;;;;;;5218221;28;20301;-72
2022/10/13 05:54:33;;;;;;;21.88;13.43;;;12.10;99.90;;;;;;5211023;28;20024;-72
2022/10/13 05:57:11;;;;;;;22.63;13.18;;;12.20;99.90;;;;;;5204234;28;20035;-73
2022/10/13 05:59:54;;;;;;;23.15;13.75;;;12.30;99.90;;;;;;5215706;28;20410;-73
2022/10/13 06:02:33;;;;;;;26.67;14.63;;;12.30;99.90;;;;;;5203426;28;20024;-72
2022/10/13 06:05:12;;;;;;;26.63;14.88;;;12.30;99.90;;;;;;5206964;28;20050;-73
2022/10/13 06:07:47;;;;;;;29.42;13.73;;;12.20;99.90;;;;;;5217953;28;20040;-71
2022/10/13 06:10:18;;;;;;;23.75;13.18;;;12.30;99.90;;;;;;5207073;28;20036;-73
2022/10/13 06:12:49;;;;;;;23.65;13.32;;;12.20;99.90;;;;;;5235186;28;20455;-73
2022/10/13 06:15:24;;;;;;;24.55;13.55;;;12.20;99.90;;;;;;5234401;28;20222;-72
2022/10/13 06:17:58;;;;;;;25.80;13.27;;;12.20;99.90;;;;;;5219616;28;20028;-72
2022/10/13 06:20:29;;;;;;;;;;;12.20;99.90;;;;;;5221924;28;20027;-72
2022/10/13 06:23:00;;;;;;;24.77;13.38;;;12.20;99.90;;;;;;5225071;28;20383;-72
2022/10/13 06:25:32;;;;;;;26.08;14.43;;;12.00;99.90;;;;;;5207429;28;20041;-72
2022/10/13 06:28:03;;;;;;;24.05;13.48;;;12.00;99.90;;;;;;5230698;28;20032;-72
2022/10/13 06:30:36;;;;;;;28.33;15.75;;;12.10;99.90;;;;;;5228467;28;20041;-72
2022/10/13 06:33:12;;;;;;;32.20;15.30;;;12.10;99.90;;;;;;5231947;28;20025;-72
2022/10/13 06:35:46;;;;;;;27.58;15.63;;;12.00;99.90;;;;;;5228041;28;20018;-71
2022/10/13 06:38:18;;;;;;;27.02;13.30;;;12.10;99.90;;;;;;5227148;28;20086;-71
2022/10/13 06:40:49;;;;;;;26.85;14.07;;;12.20;99.90;;;;;;5208293;28;20029;-72
2022/10/13 06:43:22;;;;;;;31.70;14.95;;;12.30;99.90;;;;;;5228098;28;20040;-72
2022/10/13 06:45:57;;;;;;;33.42;17.38;;;12.20;99.90;;;;;;5211061;28;20025;-71
2022/10/13 06:48:28;;;;;;;30.83;15.55;;;12.20;99.90;;;;;;5229278;28;20033;-73
2022/10/13 06:51:08;;;;;;;40.33;18.75;;;12.20;99.90;;;;;;5208499;28;20039;-72
2022/10/13 06:53:42;;;;;;;40.97;19.25;;;12.10;99.90;;;;;;5216132;28;20031;-72
2022/10/13 06:56:14;;;;;;;44.85;17.95;;;12.20;99.90;;;;;;5232805;28;20031;-71
2022/10/13 06:58:45;;;;;;;39.28;18.30;;;12.30;99.90;;;;;;5193947;28;20020;-72
2022/10/13 07:01:16;;;;;;;37.90;19.77;;;12.50;99.90;;;;;;5211721;28;20032;-72
2022/10/13 07:03:48;;;;;;;40.97;18.83;;;12.50;99.90;;;;;;5221506;28;20237;-72
2022/10/13 07:06:20;;;;;;;39.97;20.40;;;12.50;99.90;;;;;;5210825;28;20350;-72
2022/10/13 07:08:52;;;;;;;38.05;17.92;;;12.60;99.90;;;;;;5204435;28;20033;-72
2022/10/13 07:11:25;;;;;;;36.85;18.50;;;12.70;99.90;;;;;;5222716;28;20425;-72
2022/10/13 07:13:57;;;;;;;37.50;18.77;;;12.90;99.90;;;;;;5221314;28;20035;-74
2022/10/13 07:16:28;;;;;;;32.75;16.75;;;13.00;99.90;;;;;;5221313;28;20028;-71
2022/10/13 07:18:59;;;;;;;41.28;17.95;;;13.10;99.90;;;;;;5221910;28;20326;-74
2022/10/13 07:21:33;;;;;;;32.50;16.27;;;13.00;99.90;;;;;;5222373;28;20027;-72
2022/10/13 07:24:05;;;;;;;30.65;17.45;;;13.00;99.90;;;;;;5221895;28;20032;-72
2022/10/13 07:26:38;;;;;;;35.93;16.97;;;13.00;99.90;;;;;;5203084;28;20041;-73
2022/10/13 07:29:12;;;;;;;36.00;16.23;;;13.00;99.90;;;;;;5216351;28;20307;-71
2022/10/13 07:31:44;;;;;;;38.85;16.60;;;13.00;99.90;;;;;;5181602;28;20031;-72
2022/10/13 07:34:17;;;;;;;34.00;16.58;;;13.10;99.90;;;;;;5202642;28;20029;-72
2022/10/13 07:36:52;;;;;;;36.40;16.60;;;13.20;99.90;;;;;;5222253;28;20031;-72
2022/10/13 07:39:24;;;;;;;39.13;18.17;;;13.30;99.90;;;;;;5221725;28;20017;-72
2022/10/13 07:41:56;;;;;;;35.65;16.35;;;13.50;99.90;;;;;;5221286;28;20033;-72
2022/10/13 07:44:27;;;;;;;37.33;17.73;;;13.50;99.90;;;;;;5202456;28;20028;-72
2022/10/13 07:47:04;;;;;;;38.92;17.02;;;13.60;99.90;;;;;;5221089;28;20021;-72
2022/10/13 07:49:35;;;;;;;30.30;15.65;;;13.60;99.90;;;;;;5221318;28;20613;-72
2022/10/13 07:52:06;;;;;;;29.95;15.30;;;13.60;99.90;;;;;;5221209;28;20027;-71
2022/10/13 07:54:37;;;;;;;32.78;16.50;;;13.70;99.90;;;;;;5203460;28;20017;-72
2022/10/13 07:57:09;;;;;;;37.80;17.42;;;13.60;99.90;;;;;;5220296;28;20028;-72
2022/10/13 07:59:40;;;;;;;35.17;16.02;;;13.70;99.90;;;;;;5195208;28;20028;-72
2022/10/13 08:02:14;;;;;;;33.38;16.67;;;13.70;99.90;;;;;;5221093;28;20043;-71
2022/10/13 08:04:45;;;;;;;32.60;15.98;;;13.50;99.90;;;;;;5210761;28;20037;-72
2022/10/13 08:07:16;;;;;;;30.10;16.10;;;13.30;99.90;;;;;;5221157;28;20546;-72
2022/10/13 08:09:48;;;;;;;30.38;16.88;;;13.20;99.90;;;;;;5220932;28;20067;-70
2022/10/13 08:12:19;;;;;;;31.52;16.45;;;13.00;99.90;;;;;;5203551;28;20029;-72
2022/10/13 08:14:50;;;;;;;37.03;17.38;;;13.00;99.90;;;;;;5221114;28;20013;-73
2022/10/13 08:17:22;;;;;;;36.75;17.95;;;13.00;99.90;;;;;;5203298;28;20036;-73
2022/10/13 08:19:53;;;;;;;34.30;16.70;;;13.10;99.90;;;;;;5202868;28;20028;-74
2022/10/13 08:22:26;;;;;;;29.40;15.82;;;13.20;99.90;;;;;;5203251;28;20524;-73
2022/10/13 08:24:57;;;;;;;33.60;16.30;;;13.40;99.90;;;;;;5218879;28;20021;-74
2022/10/13 08:27:30;;;;;;;35.33;15.52;;;13.40;99.90;;;;;;5219051;28;20025;-73
2022/10/13 08:30:02;;;;;;;34.22;15.68;;;13.20;99.90;;;;;;5203412;28;20021;-73
2022/10/13 08:32:33;;;;;;;36.70;16.30;;;13.30;99.90;;;;;;5220175;28;20037;-73
2022/10/13 08:35:05;;;;;;;33.05;15.73;;;13.40;99.90;;;;;;5220432;28;20031;-73
2022/10/13 08:37:38;;;;;;;39.17;16.48;;;13.50;99.90;;;;;;5221579;28;20039;-72
2022/10/13 08:40:19;;;;;;;29.73;16.52;;;13.50;99.90;;;;;;5219515;28;20050;-73
2022/10/13 08:42:53;;;;;;;31.25;15.43;;;13.30;99.90;;;;;;5209399;28;20043;-73
2022/10/13 08:45:27;;;;;;;34.03;15.23;;;13.30;99.90;;;;;;5227085;28;20029;-73
2022/10/13 08:48:08;;;;;;;30.42;15.90;;;13.20;99.90;;;;;;5228116;28;20036;-73
2022/10/13 08:50:45;;;;;;;35.83;15.38;;;13.20;99.90;;;;;;5228845;28;20029;-73
2022/10/13 08:53:37;;;;;;;32.88;15.95;;;13.10;99.90;;;;;;5231968;28;20028;-72
2022/10/13 08:56:26;;;;;;;36.15;16.92;;;13.20;99.90;;;;;;5207476;28;20025;-72
2022/10/13 08:59:00;;;;;;;35.35;15.45;;;13.50;99.90;;;;;;5231676;28;20025;-72
2022/10/13 09:01:37;;;;;;;29.50;13.97;;;13.60;99.90;;;;;;5227626;28;20427;-72
2022/10/13 09:04:38;;;;;;;29.85;15.23;;;13.80;99.90;;;;;;5210309;28;20250;-72
2022/10/13 09:07:09;;;;;;;30.50;13.45;;;14.00;99.90;;;;;;5187749;28;20552;-72
2022/10/13 09:09:40;;;;;;;29.98;14.85;;;14.20;99.90;;;;;;5230949;28;20027;-71
2022/10/13 09:12:14;;;;;;;28.25;14.38;;;14.40;99.90;;;;;;5225857;28;20146;-72
2022/10/13 09:15:24;;;;;;;25.75;15.25;;;14.20;99.90;;;;;;5229024;28;20025;-72
2022/10/13 09:18:11;;;;;;;28.13;14.80;;;14.00;99.90;;;;;;5205818;28;20021;-72
2022/10/13 09:20:45;;;;;;;27.77;14.57;;;13.70;99.90;;;;;;5226374;28;20032;-72
2022/10/13 09:23:21;;;;;;;29.25;13.05;;;13.60;99.90;;;;;;5229526;28;20044;-72
2022/10/13 09:25:54;;;;;;;29.83;14.93;;;13.90;99.90;;;;;;5208390;28;20329;-72
2022/10/13 09:28:30;;;;;;;30.08;14.13;;;14.20;99.90;;;;;;5229440;28;20366;-72
2022/10/13 09:31:31;;;;;;;33.38;16.00;;;14.40;99.90;;;;;;5225100;28;20024;-72
2022/10/13 09:34:18;;;;;;;29.70;14.27;;;14.50;99.90;;;;;;5223012;28;20358;-71
2022/10/13 09:36:56;;;;;;;28.85;12.68;;;14.70;99.90;;;;;;5223769;28;20015;-71
2022/10/13 09:39:27;;;;;;;24.33;12.68;;;14.90;99.90;;;;;;5226220;28;20017;-71
2022/10/13 09:42:32;;;;;;;29.45;14.52;;;14.70;99.90;;;;;;5229051;28;20025;-71
2022/10/13 09:45:14;;;;;;;;;;;14.70;99.90;;;;;;5228158;28;20013;-72
2022/10/13 09:48:04;;;;;;;30.55;15.63;;;14.80;99.90;;;;;;5211245;28;19912;-72
2022/10/13 09:50:36;;;;;;;26.67;13.85;;;14.80;99.90;;;;;;5213508;28;20035;-72
2022/10/13 09:53:32;;;;;;;25.50;13.15;;;15.00;99.90;;;;;;5225613;28;20036;-72
2022/10/13 09:56:09;;;;;;;27.48;13.73;;;14.90;99.90;;;;;;5198189;28;20033;-72
2022/10/13 09:59:06;;;;;;;30.85;14.48;;;14.80;99.90;;;;;;5197139;28;20047;-72
2022/10/13 10:01:45;;;;;;;27.85;14.32;;;14.70;99.90;;;;;;5230399;28;20056;-72
2022/10/13 10:04:22;;;;;;;25.60;12.98;;;14.70;99.90;;;;;;5197543;28;20032;-72
2022/10/13 10:06:54;;;;;;;26.45;14.20;;;15.00;99.90;;;;;;5225670;28;20035;-72
2022/10/13 10:09:44;;;;;;;23.73;13.98;;;15.20;99.90;;;;;;5226002;28;20044;-72
2022/10/13 10:12:19;;;;;;;24.88;12.70;;;15.20;99.90;;;;;;5222785;28;20025;-72
2022/10/13 10:14:55;;;;;;;25.98;13.45;;;15.50;99.90;;;;;;5211876;28;20412;-72
2022/10/13 10:17:59;;;;;;;31.45;15.18;;;15.60;99.90;;;;;;5225199;28;20542;-72
2022/10/13 10:20:58;;;;;;;31.83;14.97;;;15.30;99.90;;;;;;5225125;28;20025;-72
2022/10/13 10:23:56;;;;;;;30.38;14.20;;;15.40;99.90;;;;;;5226294;28;20029;-72
2022/10/13 10:26:54;;;;;;;25.92;13.18;;;15.50;99.90;;;;;;5226235;28;20440;-72
2022/10/13 10:29:38;;;;;;;28.10;14.88;;;15.50;99.90;;;;;;5225639;28;20036;-72
2022/10/13 10:32:19;;;;;;;23.95;11.65;;;15.20;99.90;;;;;;5231338;28;20036;-72
2022/10/13 10:34:56;;;;;;;26.80;13.48;;;15.10;99.90;;;;;;5223795;28;20013;-72
2022/10/13 10:37:49;;;;;;;28.80;14.10;;;15.20;99.90;;;;;;5226320;28;20029;-72
2022/10/13 10:40:47;;;;;;;30.42;15.82;;;15.40;99.90;;;;;;5223303;28;20016;-72
2022/10/13 10:43:37;;;;;;;31.67;15.52;;;15.60;99.90;;;;;;5228721;28;20012;-72
2022/10/13 10:46:26;;;;;;;28.63;13.75;;;15.50;99.90;;;;;;5200773;28;20028;-73
2022/10/13 10:49:02;;;;;;;30.23;16.10;;;15.50;99.90;;;;;;5228497;28;20025;-72
2022/10/13 10:51:36;;;;;;;27.15;15.10;;;15.60;99.90;;;;;;5225771;28;20082;-73
2022/10/13 10:54:26;;;;;;;28.98;14.25;;;15.70;99.90;;;;;;5240974;28;20055;-72
2022/10/13 10:57:06;;;;;;;30.23;16.23;;;15.80;99.90;;;;;;5201745;28;20023;-72
2022/10/13 10:59:54;;;;;;;22.83;13.25;;;15.90;99.90;;;;;;5223188;28;20020;-72
2022/10/13 11:02:39;;;;;;;23.63;13.07;;;16.00;99.90;;;;;;5226248;28;20028;-72
2022/10/13 11:05:15;;;;;;;30.55;14.90;;;15.80;99.90;;;;;;5219996;28;20052;-72
2022/10/13 11:07:46;;;;;;;26.23;13.73;;;15.40;99.90;;;;;;5223298;28;20021;-72
2022/10/13 11:10:20;;;;;;;24.45;13.43;;;15.40;99.90;;;;;;5196867;28;20032;-72
2022/10/13 11:12:51;;;;;;;23.98;14.25;;;15.70;99.90;;;;;;5162875;28;20025;-72
2022/10/13 11:15:32;;;;;;;27.10;14.60;;;15.60;99.90;;;;;;5117145;28;20367;-72
2022/10/13 11:18:42;;;;;;;25.10;12.75;;;15.60;99.90;;;;;;5122450;28;20047;-72
2022/10/13 11:21:13;;;;;;;23.90;13.07;;;15.70;99.90;;;;;;5222162;28;20459;-72
2022/10/13 11:23:48;;;;;;;25.38;14.07;;;16.20;99.90;;;;;;5212879;28;20046;-72
2022/10/13 11:26:39;;;;;;;22.85;11.50;;;16.40;99.90;;;;;;5227475;28;20502;-73
2022/10/13 11:29:18;;;;;;;23.30;12.90;;;16.70;99.90;;;;;;5223563;28;20500;-72
2022/10/13 11:31:52;;;;;;;19.27;12.23;;;17.00;99.90;;;;;;5227438;28;20039;-71
2022/10/13 11:34:29;;;;;;;20.92;12.38;;;17.00;99.90;;;;;;5225062;28;20029;-71
2022/10/13 11:37:01;;;;;;;22.83;13.00;;;16.80;99.90;;;;;;5223920;28;20467;-73
2022/10/13 11:39:41;;;;;;;25.80;13.75;;;16.80;99.90;;;;;;5229660;28;20020;-73
2022/10/13 11:42:34;;;;;;;21.63;12.77;;;16.80;99.90;;;;;;5231959;28;20016;-72
2022/10/13 11:45:46;;;;;;;22.13;12.75;;;16.70;99.90;;;;;;5221773;28;20459;-73
2022/10/13 11:48:29;;;;;;;25.02;12.88;;;16.70;99.90;;;;;;5222825;28;20486;-72
2022/10/13 11:51:39;;;;;;;23.30;13.35;;;16.60;99.90;;;;;;5192830;28;20036;-73
2022/10/13 11:54:26;;;;;;;31.13;14.18;;;16.50;99.90;;;;;;5206231;28;20020;-73
2022/10/13 11:56:57;;;;;;;25.73;13.88;;;16.50;99.90;;;;;;5227543;28;20043;-72
2022/10/13 11:59:31;;;;;;;19.77;12.35;;;16.50;99.90;;;;;;5210194;28;20773;-73
2022/10/13 12:02:15;;;;;;;19.95;11.90;;;16.40;99.90;;;;;;5221650;28;20037;-71
2022/10/13 12:05:25;;;;;;;26.58;12.57;;;16.40;99.90;;;;;;5220061;28;20257;-73
2022/10/13 12:08:05;;;;;;;22.10;11.52;;;16.50;99.90;;;;;;5224382;28;20032;-72
2022/10/13 12:10:36;;;;;;;22.88;12.80;;;16.50;99.90;;;;;;5205105;28;20021;-72
2022/10/13 12:13:29;;;;;;;20.58;12.65;;;16.40;99.90;;;;;;5225234;28;20687;-72
2022/10/13 12:16:05;;;;;;;21.52;12.60;;;16.20;99.90;;;;;;5196412;28;20043;-72
2022/10/13 12:18:38;;;;;;;19.50;11.18;;;16.30;99.90;;;;;;5228027;28;20008;-72
2022/10/13 12:21:20;;;;;;;27.88;13.43;;;16.60;99.90;;;;;;5225437;28;20028;-72
2022/10/13 12:24:08;;;;;;;26.30;13.85;;;16.80;99.90;;;;;;5194415;28;20424;-72
2022/10/13 12:26:42;;;;;;;26.23;13.02;;;16.80;99.90;;;;;;5221585;28;20033;-72
2022/10/13 12:29:14;;;;;;;19.85;11.48;;;16.50;99.90;;;;;;5222917;28;20025;-72
2022/10/13 12:31:47;;;;;;;23.70;12.35;;;16.60;99.90;;;;;;5227558;28;20039;-72
2022/10/13 12:34:21;;;;;;;23.83;12.93;;;17.00;99.90;;;;;;5220782;28;20035;-74
2022/10/13 12:37:00;;;;;;;26.98;12.80;;;17.20;99.90;;;;;;5208431;28;20025;-73
2022/10/13 12:39:36;;;;;;;20.70;12.38;;;17.00;99.90;;;;;;5210421;28;20102;-73
2022/10/13 12:42:12;;;;;;;27.90;13.30;;;17.20;99.90;;;;;;5206039;28;20039;-72
2022/10/13 12:44:44;;;;;;;24.25;13.73;;;16.70;99.90;;;;;;5206478;28;20029;-73
2022/10/13 12:47:54;;;;;;;28.02;13.63;;;16.90;99.90;;;;;;5221719;28;20027;-72
2022/10/13 12:50:28;;;;;;;20.92;11.73;;;17.10;99.90;;;;;;5209335;28;20076;-72
2022/10/13 12:53:17;;;;;;;25.45;14.15;;;17.20;99.90;;;;;;5209346;28;20021;-71
2022/10/13 12:56:19;;;;;;;24.52;13.07;;;16.60;99.90;;;;;;5223810;28;20032;-71
2022/10/13 12:58:53;;;;;;;19.48;11.48;;;16.90;99.90;;;;;;5229698;28;20023;-72
2022/10/13 13:01:28;;;;;;;20.67;12.87;;;16.90;99.90;;;;;;5226419;28;20484;-72
2022/10/13 13:04:26;;;;;;;26.25;12.73;;;17.20;99.90;;;;;;5228049;28;20023;-73
2022/10/13 13:07:29;;;;;;;21.20;12.00;;;17.20;99.90;;;;;;5186079;28;20058;-73
2022/10/13 13:10:06;;;;;;;21.77;13.02;;;17.50;99.90;;;;;;5225195;28;20541;-72
2022/10/13 13:12:41;;;;;;;24.95;14.02;;;17.50;99.90;;;;;;5226418;28;20029;-73
2022/10/13 13:15:20;;;;;;;24.30;12.38;;;17.30;99.90;;;;;;5222329;28;20323;-72
2022/10/13 13:17:53;;;;;;;24.25;13.07;;;17.50;99.90;;;;;;5204449;28;20051;-73
2022/10/13 13:20:36;;;;;;;23.67;13.30;;;17.90;99.90;;;;;;5226081;28;20032;-72
2022/10/13 13:23:07;;;;;;;22.80;12.90;;;18.10;99.90;;;;;;5213250;28;20521;-71